Grafton, ND (58237)

7:50 PM CST on February 22, 2017 (GMT -0600)
Grafton-in town | | Change Station
Active Advisory: Flood Warning

Elev 833 ft 48.41 °N, 97.41 °W | Updated 6 seconds ago

Clear
Clear
29.1 °F
Feels Like 29 °F
N
1.0
Wind Variable Wind from NW

Today
High -- | Low -- °F
--% Chance of Precip.
Yesterday
High -- | Low -- °F
Precip. -- in
Pressure 29.93 in
Visibility 10.0 miles
Clouds Clear
Windchill 29 °F
Dew Point 24 °F
Humidity 83%
Rainfall 0.02 in
Snow Depth Not available.
7:23 AM 6:03 PM
Waning Crescent, 13% visible
METAR KGAF 230135Z AUTO 34010KT 10SM CLR M01/M02 A2993 RMK AO2
Pressure 29.93 in
Visibility 10.0 miles
Clouds Clear
Windchill 29 °F
Dew Point 24 °F
Humidity 83%
Rainfall 0.02 in
Snow Depth Not available.
7:23 AM 6:03 PM
Waning Crescent, 13% visible
METAR KGAF 230135Z AUTO 34010KT 10SM CLR M01/M02 A2993 RMK AO2

Get Your Daily Forecast Email!

Thanks for signing up!

Be on the lookout for a verification email in your inbox.

You'll start receiving the daily forecast at 8 AM.

×

10-Day Weather Forecast

Almanac

Astronomy

Feb. 22, 2017 Rise Set
Actual Time
Civil Twilight
Nautical Twilight
Astronomical Twilight
Moon
Length of Visible Light
Length of Day
Tomorrow will be .
, % of the Moon is Illuminated

Today's Extremes

State Highs State Lows

Community

WunderPhotos

Upload Photos

1,962,540 photos uploaded!

WunderBlog® & News

Nearby

Air Quality

  Air Quality AQ Index Pollutant
Not available.

Snow Depth

Station Depth Elevation

Earthquake Activity

City Distance Mag. Time & Date
Minimum magnitude displayed is 2.5.

Coastal Water Temperatures

Place Temperature

Stations

Nearby Weather Stations

Station Location Temp. Windchill Dew Point Humidity Wind Precip. Elev Updated Type
                   

Watches & Warnings

Flood Warning
Issued: 11:01 AM CST Feb. 22, 2017 – National Weather Service

The Flood Warning continues for...
* ... Oslo... on the Red River.
* From Thursday evening until further notice or until the warning
is cancelled.
* At 10:15 am Wednesday the stage was 17.6 feet.
* Moderate flood stage is 30.0 feet.
* Forecast... rise above flood stage by Thursday night and continue to
rise to near 31.5 feet by Sunday early afternoon.
* Impact statement(s) - at 30.0 feet, moderate flood stage.


Daily 7am CDT/6am CST forecast stage in feet:

date Thu Fri Sat sun Mon Tue Wed
(month/day) 02/23 02/24 02/25 02/26 02/27 02/28 03/01

Red River
Oslo 22.2 27.3 30.3 31.4 31.4 30.7 29.1


Lat... Lon 4810 9721 4807 9698 4846 9706 4848 9725